Time;durP1;ratioP1;P1;durP2;ratioP2;P2;SDS_P1;SDS_P2;PMS_P1;PMS_P2;Temp;Humidity;BMP_temperature;BMP_pressure;BME280_temperature;BME280_humidity;BME280_pressure;Samples;Min_cycle;Max_cycle;Signal;HPM_P1;HPM_P2
2024/01/04 00:00:13;;;;;;;7.70;5.10;;;;;;;;;;5032996;28;20029;-66
2024/01/04 00:02:41;;;;;;;11.23;6.57;;;;;;;;;;5033028;28;20076;-66
2024/01/04 00:05:08;;;;;;;9.65;6.30;;;;;;;;;;5033070;28;20026;-66
2024/01/04 00:07:35;;;;;;;12.95;7.20;;;;;;;;;;5033008;28;20021;-66
2024/01/04 00:10:02;;;;;;;14.02;7.43;;;;;;;;;;5032844;28;20025;-66
2024/01/04 00:12:27;;;;;;;12.98;7.85;;;8.20;99.90;;;;;;5033087;28;20549;-66
2024/01/04 00:14:54;;;;;;;10.95;7.13;;;;;;;;;;5032844;28;20022;-65
2024/01/04 00:17:20;;;;;;;12.90;7.63;;;8.20;99.90;;;;;;5033065;28;20037;-66
2024/01/04 00:19:46;;;;;;;12.05;7.53;;;8.20;99.90;;;;;;5032827;28;20079;-66
2024/01/04 00:22:11;;;;;;;13.80;8.05;;;8.10;99.90;;;;;;5033070;28;20021;-66
2024/01/04 00:24:37;;;;;;;10.38;7.68;;;8.10;99.90;;;;;;5032921;28;20506;-66
2024/01/04 00:27:03;;;;;;;10.45;7.57;;;8.20;99.90;;;;;;5033019;28;20030;-66
2024/01/04 00:29:28;;;;;;;14.60;8.52;;;8.10;99.90;;;;;;5033019;28;20206;-66
2024/01/04 00:31:55;;;;;;;11.65;7.57;;;8.10;99.90;;;;;;5032635;28;20108;-66
2024/01/04 00:34:21;;;;;;;11.05;7.97;;;8.10;99.90;;;;;;5032934;28;20029;-66
2024/01/04 00:36:47;;;;;;;13.82;8.43;;;8.10;99.90;;;;;;5032588;28;20033;-66
2024/01/04 00:39:12;;;;;;;14.65;8.95;;;8.10;99.90;;;;;;5032385;28;20081;-66
2024/01/04 00:41:38;;;;;;;15.63;8.70;;;8.10;99.90;;;;;;5032657;28;20033;-66
2024/01/04 00:44:04;;;;;;;13.95;8.07;;;8.10;99.90;;;;;;5032785;28;20026;-66
2024/01/04 00:46:29;;;;;;;13.93;8.23;;;8.20;99.90;;;;;;5034004;28;20025;-66
2024/01/04 00:48:55;;;;;;;14.15;7.50;;;8.10;99.90;;;;;;5036189;28;20034;-66
2024/01/04 00:51:20;;;;;;;12.18;8.00;;;8.20;99.90;;;;;;5035994;28;20041;-66
2024/01/04 00:53:46;;;;;;;11.93;7.13;;;8.20;99.90;;;;;;5036120;28;20025;-66
2024/01/04 00:56:12;;;;;;;12.43;7.20;;;8.20;99.90;;;;;;5036119;28;20372;-66
2024/01/04 00:58:37;;;;;;;12.93;7.28;;;8.10;99.90;;;;;;5035968;28;20503;-66
2024/01/04 01:01:03;;;;;;;12.55;7.90;;;8.00;99.90;;;;;;5035853;28;20025;-66
2024/01/04 01:03:29;;;;;;;13.68;7.43;;;8.10;99.90;;;;;;5036153;28;20387;-66
2024/01/04 01:05:56;;;;;;;11.75;6.18;;;;;;;;;;5035890;28;20037;-66
2024/01/04 01:08:21;;;;;;;11.63;6.07;;;8.00;99.90;;;;;;5035763;28;20025;-66
2024/01/04 01:10:47;;;;;;;8.40;5.20;;;8.00;99.90;;;;;;5035797;28;20025;-66
2024/01/04 01:13:19;;;;;;;13.75;5.85;;;8.00;99.90;;;;;;5035793;28;20391;-66
2024/01/04 01:15:46;;;;;;;10.45;5.50;;;8.00;99.90;;;;;;5035777;28;20064;-66
2024/01/04 01:18:11;;;;;;;10.68;5.32;;;8.00;99.90;;;;;;5035711;28;20029;-66
2024/01/04 01:20:37;;;;;;;9.90;4.88;;;8.00;99.90;;;;;;5035505;28;20086;-66
2024/01/04 01:23:02;;;;;;;8.05;5.90;;;8.00;99.90;;;;;;5035541;28;20026;-66
2024/01/04 01:25:28;;;;;;;8.55;6.38;;;8.00;99.90;;;;;;5035494;28;20022;-66
2024/01/04 01:27:53;;;;;;;12.38;7.22;;;8.10;99.90;;;;;;5035501;28;20586;-66
2024/01/04 01:30:19;;;;;;;9.52;6.63;;;8.00;99.90;;;;;;5035664;28;20033;-66
2024/01/04 01:32:44;;;;;;;15.48;7.38;;;8.00;99.90;;;;;;5035643;28;20041;-66
2024/01/04 01:35:10;;;;;;;11.88;7.07;;;7.90;99.90;;;;;;5035240;28;20021;-66
2024/01/04 01:37:37;;;;;;;10.10;7.75;;;7.90;99.90;;;;;;5035605;28;20033;-66
2024/01/04 01:40:02;;;;;;;13.68;7.43;;;7.90;99.90;;;;;;5034986;28;20042;-66
2024/01/04 01:42:28;;;;;;;12.20;7.47;;;7.90;99.90;;;;;;5035166;28;20113;-66
2024/01/04 01:44:53;;;;;;;9.80;7.13;;;7.90;99.90;;;;;;5035142;28;20036;-66
2024/01/04 01:47:19;;;;;;;13.05;7.40;;;7.90;99.90;;;;;;5034999;28;20064;-66
2024/01/04 01:49:46;;;;;;;8.98;6.30;;;7.90;99.90;;;;;;5035147;28;20431;-66
2024/01/04 01:52:12;;;;;;;8.75;6.13;;;7.90;99.90;;;;;;5035067;28;20109;-66
2024/01/04 01:54:39;;;;;;;9.43;6.20;;;7.90;99.90;;;;;;5035215;28;20025;-66
2024/01/04 01:57:05;;;;;;;9.85;5.65;;;8.00;99.90;;;;;;5035260;28;20108;-66
2024/01/04 01:59:30;;;;;;;7.13;5.13;;;8.00;99.90;;;;;;5034764;28;20033;-66
2024/01/04 02:01:56;;;;;;;9.80;5.10;;;8.00;99.90;;;;;;5035061;28;20076;-66
2024/01/04 02:04:22;;;;;;;7.95;5.53;;;8.00;99.90;;;;;;5034607;28;20033;-66
2024/01/04 02:06:47;;;;;;;7.50;5.20;;;8.00;99.90;;;;;;5033826;28;20034;-66
2024/01/04 02:09:13;;;;;;;9.30;5.25;;;8.10;99.90;;;;;;5034776;28;20026;-66
2024/01/04 02:11:40;;;;;;;9.40;5.47;;;8.10;99.90;;;;;;5034898;28;20064;-66
2024/01/04 02:14:05;;;;;;;6.47;4.82;;;8.00;99.90;;;;;;5034930;28;20585;-66
2024/01/04 02:16:31;;;;;;;9.35;5.30;;;8.10;99.90;;;;;;5034564;28;20026;-66
2024/01/04 02:18:57;;;;;;;6.38;5.25;;;8.00;99.90;;;;;;5034367;28;20029;-66
2024/01/04 02:21:23;;;;;;;8.48;5.35;;;8.20;99.90;;;;;;5034417;28;20120;-66
2024/01/04 02:23:50;;;;;;;8.57;5.60;;;8.10;99.90;;;;;;5034515;28;20468;-66
2024/01/04 02:26:15;;;;;;;10.23;5.95;;;8.00;99.90;;;;;;5034651;28;20360;-66
2024/01/04 02:28:41;;;;;;;11.50;7.05;;;8.10;99.90;;;;;;5034630;28;20028;-66
2024/01/04 02:31:06;;;;;;;12.25;7.05;;;7.90;99.90;;;;;;5034428;28;20108;-66
2024/01/04 02:33:32;;;;;;;13.52;8.00;;;7.90;99.90;;;;;;5034229;28;20029;-66
2024/01/04 02:35:57;;;;;;;13.90;6.80;;;8.00;99.90;;;;;;5034192;28;20025;-66
2024/01/04 02:38:24;;;;;;;15.88;7.65;;;;;;;;;;5033941;28;20046;-65
2024/01/04 02:40:49;;;;;;;11.75;7.25;;;7.90;99.90;;;;;;5034236;28;20442;-66
2024/01/04 02:43:15;;;;;;;16.13;7.55;;;8.00;99.90;;;;;;5034126;28;20022;-66
2024/01/04 02:45:40;;;;;;;8.88;5.68;;;7.90;99.90;;;;;;5034253;28;20036;-66
2024/01/04 02:48:06;;;;;;;8.77;4.68;;;7.90;99.90;;;;;;5034081;28;20029;-66
2024/01/04 02:50:32;;;;;;;9.18;4.45;;;7.80;99.90;;;;;;5033871;28;20395;-66
2024/01/04 02:52:58;;;;;;;7.10;4.18;;;7.90;99.90;;;;;;5033865;28;20061;-66
2024/01/04 02:55:23;;;;;;;4.22;3.33;;;7.70;99.90;;;;;;5033850;28;20495;-65
2024/01/04 02:57:49;;;;;;;6.20;3.72;;;7.70;99.90;;;;;;5033697;28;20030;-66
2024/01/04 03:00:17;;;;;;;7.53;4.05;;;7.70;99.90;;;;;;5033911;28;20117;-66
2024/01/04 03:02:43;;;;;;;6.75;3.47;;;7.80;99.90;;;;;;5033937;28;20033;-66
2024/01/04 03:05:08;;;;;;;9.48;3.92;;;7.80;99.90;;;;;;5032522;28;20029;-66
2024/01/04 03:07:34;;;;;;;7.53;3.80;;;7.70;99.90;;;;;;5033590;28;20369;-66
2024/01/04 03:10:01;;;;;;;8.25;4.55;;;7.80;99.90;;;;;;5033399;28;20040;-66
2024/01/04 03:12:26;;;;;;;8.73;4.50;;;7.80;99.90;;;;;;5033445;28;20022;-66
2024/01/04 03:14:52;;;;;;;7.18;4.13;;;7.80;99.90;;;;;;5033481;28;20120;-66
2024/01/04 03:17:18;;;;;;;10.38;4.47;;;7.80;99.90;;;;;;5033756;28;20025;-66
2024/01/04 03:19:44;;;;;;;9.60;4.05;;;7.80;99.90;;;;;;5033453;28;20475;-66
2024/01/04 03:22:09;;;;;;;6.95;3.90;;;7.80;99.90;;;;;;5033592;28;20040;-66
2024/01/04 03:24:35;;;;;;;11.50;3.47;;;7.70;99.90;;;;;;5032221;28;20029;-66
2024/01/04 03:27:00;;;;;;;7.47;3.30;;;7.70;99.90;;;;;;5033381;28;20499;-66
2024/01/04 03:29:26;;;;;;;8.43;4.25;;;7.80;99.90;;;;;;5033373;28;20383;-66
2024/01/04 03:31:51;;;;;;;5.88;3.30;;;7.80;99.90;;;;;;5033194;28;20096;-66
2024/01/04 03:34:17;;;;;;;7.75;3.83;;;7.80;99.90;;;;;;5033565;28;20017;-66
2024/01/04 03:36:42;;;;;;;8.18;4.13;;;7.80;99.90;;;;;;5033228;28;20470;-66
2024/01/04 03:39:09;;;;;;;9.45;4.03;;;7.70;99.90;;;;;;5033148;28;20514;-66
2024/01/04 03:41:34;;;;;;;7.13;3.40;;;7.80;99.90;;;;;;5033339;28;20373;-66
2024/01/04 03:44:00;;;;;;;8.45;4.15;;;7.70;99.90;;;;;;5033481;28;20032;-66
2024/01/04 03:46:25;;;;;;;7.25;3.78;;;7.80;99.90;;;;;;5033395;28;20029;-67
2024/01/04 03:48:51;;;;;;;9.60;3.58;;;7.80;99.90;;;;;;5033247;28;20022;-66
2024/01/04 03:51:17;;;;;;;8.38;3.80;;;7.80;99.90;;;;;;5033128;28;20040;-67
2024/01/04 03:53:42;;;;;;;6.28;3.53;;;7.80;99.90;;;;;;5033327;28;20033;-66
2024/01/04 03:56:08;;;;;;;10.43;3.70;;;7.80;99.90;;;;;;5033287;28;20037;-66
2024/01/04 03:58:34;;;;;;;5.45;3.22;;;7.80;99.90;;;;;;5033322;28;20387;-66
2024/01/04 04:01:01;;;;;;;9.73;3.40;;;7.80;99.90;;;;;;5033178;28;20061;-66
2024/01/04 04:03:27;;;;;;;5.25;3.53;;;7.80;99.90;;;;;;5032903;28;20060;-66
2024/01/04 04:05:52;;;;;;;8.98;3.42;;;7.70;99.90;;;;;;5033280;28;20065;-66
2024/01/04 04:08:18;;;;;;;7.57;3.58;;;7.80;99.90;;;;;;5033022;28;20052;-66
2024/01/04 04:10:44;;;;;;;11.00;3.78;;;7.70;99.90;;;;;;5033198;28;20091;-66
2024/01/04 04:13:09;;;;;;;8.40;3.90;;;7.70;99.90;;;;;;5032882;28;20036;-66
2024/01/04 04:15:35;;;;;;;7.38;3.63;;;7.70;99.90;;;;;;5032775;28;20112;-66
2024/01/04 04:18:00;;;;;;;8.15;4.35;;;7.80;99.90;;;;;;5032879;28;20368;-66
2024/01/04 04:20:26;;;;;;;8.52;3.70;;;7.80;99.90;;;;;;5033015;28;20034;-66
2024/01/04 04:22:51;;;;;;;10.80;4.10;;;7.80;99.90;;;;;;5035610;28;20029;-66
2024/01/04 04:25:17;;;;;;;10.60;3.72;;;7.80;99.90;;;;;;5036883;28;20037;-66
2024/01/04 04:27:42;;;;;;;9.80;3.95;;;7.80;99.90;;;;;;5036592;28;20387;-66
2024/01/04 04:30:08;;;;;;;10.02;3.97;;;7.80;99.90;;;;;;5036806;28;20108;-66
2024/01/04 04:32:34;;;;;;;10.65;3.67;;;7.80;99.90;;;;;;5036506;28;20036;-66
2024/01/04 04:34:59;;;;;;;7.47;3.90;;;7.80;99.90;;;;;;5036734;28;20084;-66
2024/01/04 04:37:25;;;;;;;8.77;3.78;;;7.80;99.90;;;;;;5036495;28;20037;-66
2024/01/04 04:39:50;;;;;;;8.50;3.97;;;7.80;99.90;;;;;;5036044;28;20060;-66
2024/01/04 04:42:16;;;;;;;11.77;4.65;;;7.80;99.90;;;;;;5036417;28;20030;-66
2024/01/04 04:44:41;;;;;;;12.10;4.53;;;7.80;99.90;;;;;;5036414;28;20083;-66
2024/01/04 04:47:07;;;;;;;9.68;4.32;;;7.80;99.90;;;;;;5036342;28;20040;-66
2024/01/04 04:49:32;;;;;;;10.27;5.15;;;7.80;99.90;;;;;;5036154;28;20021;-66
2024/01/04 04:51:59;;;;;;;8.27;4.70;;;7.80;99.90;;;;;;5036194;28;20021;-66
2024/01/04 04:54:25;;;;;;;9.85;4.68;;;7.90;99.90;;;;;;5036348;28;20109;-66
2024/01/04 04:56:52;;;;;;;6.53;4.47;;;;;;;;;;5035979;28;20036;-66
2024/01/04 04:59:19;;;;;;;8.82;5.28;;;;;;;;;;5035887;28;20029;-66
2024/01/04 05:01:45;;;;;;;12.23;5.28;;;;;;;;;;5036070;28;20025;-66
2024/01/04 05:04:12;;;;;;;11.98;5.45;;;;;;;;;;5035975;28;20060;-66
2024/01/04 05:06:39;;;;;;;11.85;5.38;;;;;;;;;;5035979;28;20029;-66
2024/01/04 05:09:07;;;;;;;10.10;5.05;;;7.80;99.90;;;;;;5035837;28;20056;-66
2024/01/04 05:11:32;;;;;;;11.93;4.60;;;7.90;99.90;;;;;;5035781;28;20026;-66
2024/01/04 05:13:58;;;;;;;13.52;4.75;;;7.80;99.90;;;;;;5035976;28;20391;-66
2024/01/04 05:16:23;;;;;;;9.90;4.68;;;7.80;99.90;;;;;;5035534;28;20028;-65
2024/01/04 05:18:49;;;;;;;14.63;4.88;;;7.80;99.90;;;;;;5035713;28;20037;-66
2024/01/04 05:21:14;;;;;;;11.23;4.72;;;7.80;99.90;;;;;;5035632;28;20034;-66
2024/01/04 05:23:40;;;;;;;13.50;5.20;;;7.70;99.90;;;;;;5035646;28;20028;-66
2024/01/04 05:26:06;;;;;;;8.57;5.53;;;7.80;99.90;;;;;;5035509;28;20029;-66
2024/01/04 05:28:31;;;;;;;10.80;5.80;;;7.80;99.90;;;;;;5035667;28;20022;-66
2024/01/04 05:30:57;;;;;;;11.98;5.25;;;7.70;99.90;;;;;;5035420;28;20048;-66
2024/01/04 05:33:22;;;;;;;7.45;4.30;;;7.70;99.90;;;;;;5035073;28;20022;-66
2024/01/04 05:35:50;;;;;;;10.68;4.80;;;7.70;99.90;;;;;;5035421;28;20030;-66
2024/01/04 05:38:15;;;;;;;13.98;4.63;;;7.60;99.90;;;;;;5035240;28;20408;-66
2024/01/04 05:40:41;;;;;;;9.93;4.05;;;7.70;99.90;;;;;;5035286;28;20030;-66
2024/01/04 05:43:06;;;;;;;10.05;3.58;;;7.60;99.90;;;;;;5035176;28;20032;-66
2024/01/04 05:45:32;;;;;;;9.35;4.13;;;7.60;99.90;;;;;;5035334;28;20072;-66
2024/01/04 05:47:57;;;;;;;10.85;4.40;;;7.60;99.90;;;;;;5035221;28;20475;-66
2024/01/04 05:50:23;;;;;;;7.88;4.20;;;7.60;99.90;;;;;;5035060;28;20072;-66
2024/01/04 05:52:48;;;;;;;10.95;3.92;;;7.60;99.90;;;;;;5034884;28;20025;-66
2024/01/04 05:55:14;;;;;;;10.88;3.92;;;7.60;99.90;;;;;;5035075;28;20033;-66
2024/01/04 05:57:40;;;;;;;9.77;3.67;;;7.60;99.90;;;;;;5035206;28;20041;-66
2024/01/04 06:00:06;;;;;;;10.05;4.45;;;7.60;99.90;;;;;;5034686;28;20041;-66
2024/01/04 06:02:31;;;;;;;10.95;4.05;;;7.60;99.90;;;;;;5035085;28;20022;-66
2024/01/04 06:04:57;;;;;;;6.28;3.92;;;7.60;99.90;;;;;;5035203;28;20071;-66
2024/01/04 06:07:22;;;;;;;6.30;4.18;;;7.60;99.90;;;;;;5033474;28;20505;-66
2024/01/04 06:09:48;;;;;;;11.88;4.97;;;7.60;99.90;;;;;;5034758;28;20029;-66
2024/01/04 06:12:14;;;;;;;5.85;3.78;;;7.60;99.90;;;;;;5034922;28;20040;-66
2024/01/04 06:14:40;;;;;;;12.00;4.47;;;7.60;99.90;;;;;;5034671;28;20030;-66
2024/01/04 06:17:07;;;;;;;8.45;4.68;;;7.70;99.90;;;;;;5034716;28;20038;-66
2024/01/04 06:19:33;;;;;;;8.38;4.97;;;7.60;99.90;;;;;;5034419;28;20037;-66
2024/01/04 06:21:58;;;;;;;11.35;4.78;;;7.60;99.90;;;;;;5033300;28;20131;-66
2024/01/04 06:24:24;;;;;;;11.32;5.18;;;7.70;99.90;;;;;;5034432;28;20025;-66
2024/01/04 06:26:51;;;;;;;14.15;5.53;;;7.70;99.90;;;;;;5034243;28;20444;-66
2024/01/04 06:29:16;;;;;;;8.70;5.75;;;7.70;99.90;;;;;;5034409;28;20018;-66
2024/01/04 06:31:42;;;;;;;12.52;5.93;;;7.70;99.90;;;;;;5034399;28;20505;-66
2024/01/04 06:34:07;;;;;;;11.20;5.75;;;7.60;99.90;;;;;;5034218;28;20420;-66
2024/01/04 06:36:33;;;;;;;12.32;5.68;;;7.60;99.90;;;;;;5034412;28;20071;-66
2024/01/04 06:38:58;;;;;;;12.20;5.72;;;7.70;99.90;;;;;;5033967;28;20601;-66
2024/01/04 06:41:29;;;;;;;10.38;6.00;;;7.70;99.90;;;;;;5034050;28;20112;-66
2024/01/04 06:43:54;;;;;;;9.10;5.32;;;7.70;99.90;;;;;;5033496;28;20471;-66
2024/01/04 06:46:20;;;;;;;12.85;5.40;;;7.70;99.90;;;;;;5034036;28;20075;-66
2024/01/04 06:48:45;;;;;;;11.00;5.15;;;7.60;99.90;;;;;;5033961;28;20079;-66
2024/01/04 06:51:12;;;;;;;13.60;5.05;;;7.60;99.90;;;;;;5033963;28;20395;-66
2024/01/04 06:53:38;;;;;;;7.25;3.53;;;7.60;99.90;;;;;;5033735;28;20487;-66
2024/01/04 06:56:04;;;;;;;13.40;4.28;;;7.60;99.90;;;;;;5033574;28;20096;-66
2024/01/04 06:58:29;;;;;;;7.93;4.07;;;7.60;99.90;;;;;;5033764;28;20029;-66
2024/01/04 07:00:56;;;;;;;8.95;4.13;;;7.60;99.90;;;;;;5033721;28;20479;-66
2024/01/04 07:03:22;;;;;;;8.23;3.97;;;7.60;99.90;;;;;;5033832;28;20475;-66
2024/01/04 07:05:48;;;;;;;8.98;3.53;;;7.60;99.90;;;;;;5033489;28;20052;-66
2024/01/04 07:08:14;;;;;;;10.00;3.97;;;7.60;99.90;;;;;;5033670;28;20044;-66
2024/01/04 07:10:40;;;;;;;11.82;4.28;;;7.50;99.90;;;;;;5033577;28;20035;-66
2024/01/04 07:13:07;;;;;;;9.15;3.90;;;7.50;99.90;;;;;;5030450;28;20040;-66
2024/01/04 07:15:32;;;;;;;11.30;4.18;;;7.50;99.90;;;;;;5030022;28;20360;-66
2024/01/04 07:17:58;;;;;;;9.18;3.92;;;7.50;99.90;;;;;;5033276;28;20028;-66
2024/01/04 07:20:23;;;;;;;9.32;4.38;;;7.50;99.90;;;;;;5033298;28;20048;-66
2024/01/04 07:22:53;;;;;;;11.73;4.57;;;7.40;99.90;;;;;;5033164;28;20022;-66
2024/01/04 07:25:19;;;;;;;8.15;4.28;;;7.50;99.90;;;;;;5033254;28;20026;-66
2024/01/04 07:27:44;;;;;;;11.82;4.50;;;7.40;99.90;;;;;;5033190;28;20057;-66
2024/01/04 07:30:10;;;;;;;12.15;4.82;;;7.40;99.90;;;;;;5033462;28;20033;-66
2024/01/04 07:32:36;;;;;;;6.95;3.97;;;7.40;99.90;;;;;;5033463;28;20025;-66
2024/01/04 07:35:01;;;;;;;8.38;4.57;;;7.40;99.90;;;;;;5033180;28;20021;-66
2024/01/04 07:37:27;;;;;;;12.30;4.65;;;7.40;99.90;;;;;;5033223;28;20155;-66
2024/01/04 07:39:53;;;;;;;8.32;4.40;;;7.40;99.90;;;;;;5031732;28;20055;-66
2024/01/04 07:42:18;;;;;;;10.93;4.65;;;7.30;99.90;;;;;;5033149;28;20494;-66
2024/01/04 07:44:44;;;;;;;11.57;4.90;;;7.30;99.90;;;;;;5033034;28;20021;-66
2024/01/04 07:47:10;;;;;;;11.80;5.28;;;7.40;99.90;;;;;;5033234;28;20060;-66
2024/01/04 07:49:35;;;;;;;14.65;4.20;;;7.30;99.90;;;;;;5033269;28;20476;-66
2024/01/04 07:52:01;;;;;;;10.68;4.55;;;7.30;99.90;;;;;;5033055;28;20033;-66
2024/01/04 07:54:26;;;;;;;12.32;4.90;;;7.30;99.90;;;;;;5033038;28;20040;-66
2024/01/04 07:56:52;;;;;;;10.25;4.35;;;7.30;99.90;;;;;;5037040;28;20108;-66
2024/01/04 07:59:18;;;;;;;8.63;4.40;;;7.30;99.90;;;;;;5033117;28;20032;-67
2024/01/04 08:01:44;;;;;;;9.45;4.43;;;7.30;99.90;;;;;;5035413;28;20133;-67
2024/01/04 08:04:09;;;;;;;10.10;5.10;;;7.30;99.90;;;;;;5036480;28;20507;-67
2024/01/04 08:06:35;;;;;;;12.20;5.82;;;7.30;99.90;;;;;;5035970;28;20036;-66
2024/01/04 08:09:00;;;;;;;12.02;4.40;;;7.30;99.90;;;;;;5034642;28;20029;-67
2024/01/04 08:11:26;;;;;;;11.90;4.05;;;7.30;99.90;;;;;;5038461;28;20025;-67
2024/01/04 08:13:51;;;;;;;10.82;4.97;;;7.30;99.90;;;;;;5036920;28;20087;-66
2024/01/04 08:16:18;;;;;;;10.43;4.88;;;7.30;99.90;;;;;;5036484;28;20026;-66
2024/01/04 08:18:43;;;;;;;8.65;4.32;;;7.30;99.90;;;;;;5036619;28;20514;-66
2024/01/04 08:21:10;;;;;;;8.00;4.05;;;7.30;99.90;;;;;;5028228;28;20034;-66
2024/01/04 08:23:35;;;;;;;10.52;4.15;;;7.30;99.90;;;;;;5036433;28;20550;-66
2024/01/04 08:26:05;;;;;;;11.15;4.30;;;7.40;99.90;;;;;;5035810;28;20108;-66
2024/01/04 08:28:30;;;;;;;6.45;4.03;;;7.40;99.90;;;;;;5036424;28;20025;-66
2024/01/04 08:30:56;;;;;;;10.68;4.40;;;7.40;99.90;;;;;;5036501;28;20361;-66
2024/01/04 08:33:22;;;;;;;7.18;4.30;;;7.40;99.90;;;;;;5036081;28;20041;-66
2024/01/04 08:35:47;;;;;;;8.90;4.07;;;7.40;99.90;;;;;;5035980;28;20033;-68
2024/01/04 08:38:13;;;;;;;8.52;4.38;;;7.40;99.90;;;;;;5035933;28;20049;-66
2024/01/04 08:40:38;;;;;;;7.60;4.50;;;7.50;99.90;;;;;;5036296;28;20100;-66
2024/01/04 08:43:06;;;;;;;9.45;4.50;;;7.50;99.90;;;;;;5035695;28;20068;-66
2024/01/04 08:45:31;;;;;;;10.15;4.50;;;7.40;99.90;;;;;;5035224;28;20030;-66
2024/01/04 08:47:58;;;;;;;9.45;4.05;;;7.50;99.90;;;;;;5036024;28;20387;-66
2024/01/04 08:50:23;;;;;;;9.07;4.57;;;7.50;99.90;;;;;;5022586;28;20116;-66
2024/01/04 08:52:49;;;;;;;6.85;4.07;;;7.50;99.90;;;;;;5036335;28;20113;-66
2024/01/04 08:55:14;;;;;;;8.75;4.18;;;7.50;99.90;;;;;;5035565;28;20022;-66
2024/01/04 08:57:40;;;;;;;9.27;5.30;;;7.50;99.90;;;;;;5035963;28;20033;-66
2024/01/04 09:00:06;;;;;;;8.88;4.38;;;7.50;99.90;;;;;;5034798;28;20037;-67
2024/01/04 09:02:32;;;;;;;10.38;4.57;;;7.50;99.90;;;;;;5035141;28;20494;-66
2024/01/04 09:04:57;;;;;;;13.90;4.40;;;7.50;99.90;;;;;;5035322;28;20030;-66
2024/01/04 09:07:23;;;;;;;8.80;4.32;;;7.50;99.90;;;;;;5031595;28;20022;-66
2024/01/04 09:09:48;;;;;;;10.63;5.05;;;7.60;99.90;;;;;;5035246;28;20056;-66
2024/01/04 09:12:15;;;;;;;9.32;3.97;;;7.60;99.90;;;;;;5034898;28;20130;-66
2024/01/04 09:14:40;;;;;;;8.80;4.32;;;7.60;99.90;;;;;;5034969;28;20179;-66
2024/01/04 09:17:06;;;;;;;7.88;3.95;;;7.60;99.90;;;;;;5035119;28;20093;-66
2024/01/04 09:19:32;;;;;;;8.32;4.05;;;7.60;99.90;;;;;;5030973;28;20040;-66
2024/01/04 09:21:58;;;;;;;9.77;3.97;;;7.70;99.90;;;;;;5029889;28;20033;-66
2024/01/04 09:24:23;;;;;;;9.10;4.20;;;7.70;99.90;;;;;;5034118;28;21697;-66
2024/01/04 09:26:49;;;;;;;6.28;3.47;;;7.60;99.90;;;;;;5034537;28;20033;-66
2024/01/04 09:29:17;;;;;;;7.88;3.63;;;7.70;99.90;;;;;;5034185;28;20455;-66
2024/01/04 09:31:42;;;;;;;5.90;3.90;;;7.70;99.90;;;;;;5030354;28;20037;-66
2024/01/04 09:34:08;;;;;;;7.30;3.92;;;7.70;99.90;;;;;;5028539;28;20051;-67
2024/01/04 09:36:34;;;;;;;10.65;4.20;;;7.70;99.90;;;;;;5043300;28;20097;-66
2024/01/04 09:39:01;;;;;;;9.02;4.63;;;7.70;99.90;;;;;;5031189;28;20096;-66
2024/01/04 09:41:30;;;;;;;9.02;4.70;;;7.80;99.90;;;;;;5032964;28;20037;-66
2024/01/04 09:44:00;;;;;;;8.05;4.68;;;7.70;99.90;;;;;;5032632;28;20028;-66
2024/01/04 09:46:32;;;;;;;12.02;4.95;;;7.90;99.90;;;;;;5029684;28;20029;-67
2024/01/04 09:48:59;;;;;;;9.25;4.95;;;7.80;99.90;;;;;;5030147;28;20383;-67
2024/01/04 09:51:27;;;;;;;13.85;5.78;;;7.80;99.90;;;;;;5032132;28;20036;-67
2024/01/04 09:53:54;;;;;;;9.80;5.80;;;7.80;99.90;;;;;;5034513;28;20030;-67
2024/01/04 09:56:21;;;;;;;10.50;5.47;;;7.80;99.90;;;;;;5032337;28;20033;-66
2024/01/04 09:58:48;;;;;;;13.65;5.30;;;7.80;99.90;;;;;;5025880;28;20044;-66
2024/01/04 10:01:20;;;;;;;8.90;5.10;;;7.80;99.90;;;;;;5034865;28;20041;-67
2024/01/04 10:03:48;;;;;;;10.43;5.15;;;7.70;99.90;;;;;;5033717;28;20464;-67
2024/01/04 10:06:24;;;;;;;10.13;5.13;;;7.80;99.90;;;;;;5034837;28;20025;-67
2024/01/04 10:08:55;;;;;;;6.93;4.25;;;7.70;99.90;;;;;;5032957;28;20049;-67
2024/01/04 10:11:27;;;;;;;10.85;4.47;;;7.80;99.90;;;;;;5032198;28;20398;-65
2024/01/04 10:13:53;;;;;;;10.15;4.57;;;7.80;99.90;;;;;;5034480;28;20433;-65
2024/01/04 10:16:19;;;;;;;6.30;4.03;;;7.80;99.90;;;;;;5031973;28;20105;-66
2024/01/04 10:18:45;;;;;;;7.53;4.43;;;7.90;99.90;;;;;;5036090;28;20025;-66
2024/01/04 10:21:10;;;;;;;8.07;4.90;;;8.00;99.90;;;;;;5033517;28;20029;-66
2024/01/04 10:23:36;;;;;;;9.40;5.38;;;8.00;99.90;;;;;;5033559;28;20079;-66
2024/01/04 10:26:10;;;;;;;10.27;5.80;;;8.00;99.90;;;;;;5033052;28;20103;-66
2024/01/04 10:28:38;;;;;;;12.00;6.88;;;8.10;99.90;;;;;;5033942;28;20036;-66
2024/01/04 10:31:06;;;;;;;12.20;6.80;;;8.10;99.90;;;;;;5032637;28;20026;-66
2024/01/04 10:33:32;;;;;;;10.85;7.20;;;8.10;99.90;;;;;;5036063;28;20040;-66
2024/01/04 10:36:08;;;;;;;12.40;7.18;;;8.00;99.90;;;;;;5041617;28;20028;-66
2024/01/04 10:38:33;;;;;;;12.90;6.85;;;8.00;99.90;;;;;;5031573;28;20128;-66
2024/01/04 10:41:01;;;;;;;11.30;6.72;;;8.00;99.90;;;;;;5033174;28;20061;-66
2024/01/04 10:43:27;;;;;;;12.02;7.25;;;7.80;99.90;;;;;;5032132;28;20022;-66
2024/01/04 10:46:02;;;;;;;13.60;7.00;;;8.10;99.90;;;;;;5033586;28;20033;-66
2024/01/04 10:48:27;;;;;;;12.00;7.07;;;7.90;99.90;;;;;;5032571;28;20399;-66
2024/01/04 10:50:57;;;;;;;10.48;6.50;;;7.90;99.90;;;;;;5033995;28;20083;-66
2024/01/04 10:53:26;;;;;;;11.70;6.63;;;8.00;99.90;;;;;;5032395;28;20026;-66
2024/01/04 10:55:53;;;;;;;10.30;6.90;;;8.00;99.90;;;;;;5033725;28;20061;-66
2024/01/04 10:58:20;;;;;;;11.52;7.28;;;8.00;99.90;;;;;;5034296;28;20193;-66
2024/01/04 11:00:46;;;;;;;14.40;8.15;;;7.90;99.90;;;;;;5036534;28;20479;-66
2024/01/04 11:03:12;;;;;;;15.73;7.78;;;8.00;99.90;;;;;;5029512;28;20111;-66
2024/01/04 11:05:41;;;;;;;10.73;6.63;;;7.80;99.90;;;;;;5030309;28;20029;-65
2024/01/04 11:08:08;;;;;;;11.82;7.47;;;8.00;99.90;;;;;;5030772;28;20121;-65
2024/01/04 11:10:34;;;;;;;11.48;7.28;;;7.90;99.90;;;;;;5033515;28;20052;-65
2024/01/04 11:13:01;;;;;;;13.32;7.05;;;8.00;99.90;;;;;;5033664;28;20037;-65
2024/01/04 11:15:27;;;;;;;11.10;7.22;;;8.20;99.90;;;;;;5032786;28;20116;-65
2024/01/04 11:18:11;;;;;;;9.93;6.53;;;7.90;99.90;;;;;;5032595;28;20029;-66
2024/01/04 11:20:55;;;;;;;11.07;7.65;;;8.10;99.90;;;;;;5027581;28;20029;-66
2024/01/04 11:23:47;;;;;;;8.93;6.93;;;8.20;99.90;;;;;;5033082;28;20075;-66
2024/01/04 11:26:38;;;;;;;9.70;7.70;;;8.50;99.90;;;;;;5032949;28;20037;-65
2024/01/04 11:29:09;;;;;;;14.30;7.78;;;8.40;99.90;;;;;;5029480;28;20100;-66
2024/01/04 11:31:41;;;;;;;10.05;6.70;;;8.30;99.90;;;;;;5028672;28;20360;-66
2024/01/04 11:34:09;;;;;;;10.27;6.32;;;8.50;99.90;;;;;;5032464;28;20036;-66
2024/01/04 11:36:35;;;;;;;8.52;6.90;;;8.80;99.90;;;;;;5030935;28;20034;-66
2024/01/04 11:39:00;;;;;;;8.27;6.32;;;8.50;99.90;;;;;;5030020;28;20055;-66
2024/01/04 11:41:32;;;;;;;8.80;5.70;;;8.50;99.90;;;;;;5020577;28;20049;-66
2024/01/04 11:43:58;;;;;;;10.10;6.63;;;8.40;99.90;;;;;;5033822;28;20021;-66
2024/01/04 11:46:26;;;;;;;8.38;5.22;;;8.40;99.90;;;;;;5031773;28;20369;-66
2024/01/04 11:49:04;;;;;;;5.40;4.07;;;8.10;99.90;;;;;;5029347;28;20018;-66
2024/01/04 11:51:45;;;;;;;6.05;4.55;;;8.40;99.90;;;;;;5033092;28;20026;-67
2024/01/04 11:54:13;;;;;;;8.07;4.55;;;8.40;99.90;;;;;;5033231;28;20035;-66
2024/01/04 11:56:39;;;;;;;6.15;4.10;;;8.30;99.90;;;;;;5031204;28;20123;-66
2024/01/04 11:59:06;;;;;;;8.57;4.57;;;8.40;99.90;;;;;;5031263;28;20112;-66
2024/01/04 12:01:32;;;;;;;9.02;4.75;;;8.30;99.90;;;;;;5032641;28;20055;-66
2024/01/04 12:04:08;;;;;;;7.80;4.53;;;8.30;99.90;;;;;;5033033;28;20537;-66
2024/01/04 12:06:38;;;;;;;6.28;5.15;;;8.30;99.90;;;;;;5032960;28;20029;-66
2024/01/04 12:09:06;;;;;;;8.98;4.47;;;8.30;99.90;;;;;;5030053;28;20087;-66
2024/01/04 12:11:32;;;;;;;5.22;4.22;;;8.30;99.90;;;;;;5038622;28;20402;-66
2024/01/04 12:14:00;;;;;;;5.63;4.13;;;8.20;99.90;;;;;;5024837;28;20033;-66
2024/01/04 12:16:26;;;;;;;6.95;4.28;;;8.30;99.90;;;;;;5024115;28;20032;-66
2024/01/04 12:18:51;;;;;;;5.70;4.35;;;8.30;99.90;;;;;;5052807;28;20029;-66
2024/01/04 12:21:17;;;;;;;6.32;4.45;;;8.20;99.90;;;;;;5052669;28;20021;-66
2024/01/04 12:23:43;;;;;;;6.80;4.47;;;8.20;99.90;;;;;;5036927;28;20056;-66
2024/01/04 12:26:09;;;;;;;6.05;4.50;;;8.20;99.90;;;;;;5027564;28;20100;-66
2024/01/04 12:28:35;;;;;;;9.18;5.15;;;8.30;99.90;;;;;;5016868;28;20495;-66
2024/01/04 12:31:02;;;;;;;6.00;4.97;;;8.40;99.90;;;;;;5021922;28;20030;-66
2024/01/04 12:33:30;;;;;;;8.27;5.30;;;8.30;99.90;;;;;;5024799;28;20037;-66
2024/01/04 12:35:58;;;;;;;8.13;5.50;;;8.30;99.90;;;;;;5031990;28;20454;-66
2024/01/04 12:38:24;;;;;;;7.47;5.80;;;8.30;99.90;;;;;;5038678;28;20042;-66
2024/01/04 12:40:50;;;;;;;8.82;5.72;;;8.30;99.90;;;;;;5036965;28;20060;-66
2024/01/04 12:43:20;;;;;;;10.18;6.00;;;8.30;99.90;;;;;;5043187;28;20025;-66
2024/01/04 12:45:46;;;;;;;11.90;6.43;;;8.10;99.90;;;;;;5036123;28;20535;-66
2024/01/04 12:48:12;;;;;;;7.65;5.72;;;8.20;99.90;;;;;;5033887;28;20075;-66
2024/01/04 12:50:38;;;;;;;9.63;6.05;;;8.30;99.90;;;;;;5047475;28;20421;-66